sensor_id;sensor_type;location;lat;lon;timestamp;P1;durP1;ratioP1;P2;durP2;ratioP2
58470;SDS011;44258;51.288;12.068;2022-10-26T00:00:32;8.60;;;3.70;;
58470;SDS011;44258;51.288;12.068;2022-10-26T00:02:59;8.13;;;3.45;;
58470;SDS011;44258;51.288;12.068;2022-10-26T00:05:30;9.70;;;3.50;;
58470;SDS011;44258;51.288;12.068;2022-10-26T00:07:58;7.00;;;3.38;;
58470;SDS011;44258;51.288;12.068;2022-10-26T00:10:25;9.45;;;3.95;;
58470;SDS011;44258;51.288;12.068;2022-10-26T00:12:52;9.77;;;3.67;;
58470;SDS011;44258;51.288;12.068;2022-10-26T00:15:21;8.90;;;3.78;;
58470;SDS011;44258;51.288;12.068;2022-10-26T00:17:49;7.93;;;3.60;;
58470;SDS011;44258;51.288;12.068;2022-10-26T00:20:16;7.43;;;3.30;;
58470;SDS011;44258;51.288;12.068;2022-10-26T00:22:43;8.85;;;3.65;;
58470;SDS011;44258;51.288;12.068;2022-10-26T00:25:10;8.25;;;3.50;;
58470;SDS011;44258;51.288;12.068;2022-10-26T00:27:37;8.05;;;3.55;;
58470;SDS011;44258;51.288;12.068;2022-10-26T00:30:05;9.98;;;3.80;;
58470;SDS011;44258;51.288;12.068;2022-10-26T00:32:33;8.85;;;4.25;;
58470;SDS011;44258;51.288;12.068;2022-10-26T00:35:01;8.68;;;3.97;;
58470;SDS011;44258;51.288;12.068;2022-10-26T00:37:29;9.00;;;3.70;;
58470;SDS011;44258;51.288;12.068;2022-10-26T00:39:55;9.18;;;4.00;;
58470;SDS011;44258;51.288;12.068;2022-10-26T00:42:22;10.48;;;4.30;;
58470;SDS011;44258;51.288;12.068;2022-10-26T00:44:56;12.02;;;4.30;;
58470;SDS011;44258;51.288;12.068;2022-10-26T00:50:01;10.23;;;3.50;;
58470;SDS011;44258;51.288;12.068;2022-10-26T00:52:32;9.15;;;4.15;;
58470;SDS011;44258;51.288;12.068;2022-10-26T00:55:00;9.88;;;4.18;;
58470;SDS011;44258;51.288;12.068;2022-10-26T00:57:26;9.02;;;3.72;;
58470;SDS011;44258;51.288;12.068;2022-10-26T00:59:54;8.55;;;3.75;;
58470;SDS011;44258;51.288;12.068;2022-10-26T01:02:23;8.68;;;4.18;;
58470;SDS011;44258;51.288;12.068;2022-10-26T01:04:50;10.15;;;4.10;;
58470;SDS011;44258;51.288;12.068;2022-10-26T01:07:20;11.05;;;4.15;;
58470;SDS011;44258;51.288;12.068;2022-10-26T01:09:47;9.95;;;4.38;;
58470;SDS011;44258;51.288;12.068;2022-10-26T01:12:17;10.63;;;4.30;;
58470;SDS011;44258;51.288;12.068;2022-10-26T01:14:44;8.77;;;4.20;;
58470;SDS011;44258;51.288;12.068;2022-10-26T01:17:15;9.57;;;4.30;;
58470;SDS011;44258;51.288;12.068;2022-10-26T01:20:12;10.93;;;4.63;;
58470;SDS011;44258;51.288;12.068;2022-10-26T01:23:02;9.60;;;4.07;;
58470;SDS011;44258;51.288;12.068;2022-10-26T01:25:48;11.38;;;4.53;;
58470;SDS011;44258;51.288;12.068;2022-10-26T01:28:34;10.85;;;4.30;;
58470;SDS011;44258;51.288;12.068;2022-10-26T01:31:22;9.40;;;3.97;;
58470;SDS011;44258;51.288;12.068;2022-10-26T01:33:55;9.80;;;4.20;;
58470;SDS011;44258;51.288;12.068;2022-10-26T01:36:28;7.88;;;4.00;;
58470;SDS011;44258;51.288;12.068;2022-10-26T01:39:00;10.93;;;4.53;;
58470;SDS011;44258;51.288;12.068;2022-10-26T01:41:35;9.27;;;4.05;;
58470;SDS011;44258;51.288;12.068;2022-10-26T01:44:09;9.60;;;4.40;;
58470;SDS011;44258;51.288;12.068;2022-10-26T01:46:43;13.02;;;4.55;;
58470;SDS011;44258;51.288;12.068;2022-10-26T01:49:14;8.90;;;3.88;;
58470;SDS011;44258;51.288;12.068;2022-10-26T01:51:45;9.20;;;3.83;;
58470;SDS011;44258;51.288;12.068;2022-10-26T01:54:14;10.13;;;4.60;;
58470;SDS011;44258;51.288;12.068;2022-10-26T01:56:41;9.00;;;4.20;;
58470;SDS011;44258;51.288;12.068;2022-10-26T01:59:12;10.35;;;4.40;;
58470;SDS011;44258;51.288;12.068;2022-10-26T02:01:55;10.18;;;4.00;;
58470;SDS011;44258;51.288;12.068;2022-10-26T02:04:39;9.77;;;4.38;;
58470;SDS011;44258;51.288;12.068;2022-10-26T02:07:13;13.23;;;4.80;;
58470;SDS011;44258;51.288;12.068;2022-10-26T02:09:50;10.38;;;4.72;;
58470;SDS011;44258;51.288;12.068;2022-10-26T02:12:27;9.68;;;4.30;;
58470;SDS011;44258;51.288;12.068;2022-10-26T02:15:01;9.18;;;4.22;;
58470;SDS011;44258;51.288;12.068;2022-10-26T02:17:35;10.82;;;4.53;;
58470;SDS011;44258;51.288;12.068;2022-10-26T02:20:12;10.77;;;4.45;;
58470;SDS011;44258;51.288;12.068;2022-10-26T02:22:44;12.10;;;4.32;;
58470;SDS011;44258;51.288;12.068;2022-10-26T02:25:15;8.40;;;3.88;;
58470;SDS011;44258;51.288;12.068;2022-10-26T02:27:46;9.02;;;3.97;;
58470;SDS011;44258;51.288;12.068;2022-10-26T02:30:17;10.60;;;3.90;;
58470;SDS011;44258;51.288;12.068;2022-10-26T02:32:46;9.50;;;3.88;;
58470;SDS011;44258;51.288;12.068;2022-10-26T02:35:17;9.25;;;4.18;;
58470;SDS011;44258;51.288;12.068;2022-10-26T02:37:48;8.88;;;4.10;;
58470;SDS011;44258;51.288;12.068;2022-10-26T02:40:19;10.35;;;4.60;;
58470;SDS011;44258;51.288;12.068;2022-10-26T02:42:50;10.15;;;4.60;;
58470;SDS011;44258;51.288;12.068;2022-10-26T02:45:19;10.05;;;4.38;;
58470;SDS011;44258;51.288;12.068;2022-10-26T02:47:51;13.43;;;4.30;;
58470;SDS011;44258;51.288;12.068;2022-10-26T02:50:19;10.38;;;4.32;;
58470;SDS011;44258;51.288;12.068;2022-10-26T02:52:55;8.75;;;4.30;;
58470;SDS011;44258;51.288;12.068;2022-10-26T02:55:28;9.18;;;4.25;;
58470;SDS011;44258;51.288;12.068;2022-10-26T02:57:59;9.80;;;3.75;;
58470;SDS011;44258;51.288;12.068;2022-10-26T03:00:28;8.05;;;3.72;;
58470;SDS011;44258;51.288;12.068;2022-10-26T03:02:58;9.00;;;4.03;;
58470;SDS011;44258;51.288;12.068;2022-10-26T03:05:28;7.78;;;3.70;;
58470;SDS011;44258;51.288;12.068;2022-10-26T03:07:57;10.13;;;4.15;;
58470;SDS011;44258;51.288;12.068;2022-10-26T03:10:24;9.50;;;3.95;;
58470;SDS011;44258;51.288;12.068;2022-10-26T03:12:51;8.98;;;3.53;;
58470;SDS011;44258;51.288;12.068;2022-10-26T03:15:18;10.93;;;4.47;;
58470;SDS011;44258;51.288;12.068;2022-10-26T03:17:45;8.63;;;3.88;;
58470;SDS011;44258;51.288;12.068;2022-10-26T03:20:13;31.77;;;12.20;;
58470;SDS011;44258;51.288;12.068;2022-10-26T03:22:40;28.00;;;11.82;;
58470;SDS011;44258;51.288;12.068;2022-10-26T03:25:07;10.30;;;4.47;;
58470;SDS011;44258;51.288;12.068;2022-10-26T03:27:35;11.32;;;4.55;;
58470;SDS011;44258;51.288;12.068;2022-10-26T03:30:02;10.15;;;4.32;;
58470;SDS011;44258;51.288;12.068;2022-10-26T03:32:29;9.57;;;3.97;;
58470;SDS011;44258;51.288;12.068;2022-10-26T03:34:56;8.20;;;3.65;;
58470;SDS011;44258;51.288;12.068;2022-10-26T03:37:24;10.63;;;3.55;;
58470;SDS011;44258;51.288;12.068;2022-10-26T03:39:51;10.57;;;4.07;;
58470;SDS011;44258;51.288;12.068;2022-10-26T03:42:18;9.02;;;3.83;;
58470;SDS011;44258;51.288;12.068;2022-10-26T03:44:44;9.63;;;3.95;;
58470;SDS011;44258;51.288;12.068;2022-10-26T03:47:12;9.07;;;3.63;;
58470;SDS011;44258;51.288;12.068;2022-10-26T03:49:39;10.18;;;3.75;;
58470;SDS011;44258;51.288;12.068;2022-10-26T03:52:06;10.80;;;4.07;;
58470;SDS011;44258;51.288;12.068;2022-10-26T03:54:34;10.18;;;4.13;;
58470;SDS011;44258;51.288;12.068;2022-10-26T03:57:00;10.27;;;4.07;;
58470;SDS011;44258;51.288;12.068;2022-10-26T03:59:27;10.20;;;4.20;;
58470;SDS011;44258;51.288;12.068;2022-10-26T04:01:54;10.43;;;4.00;;
58470;SDS011;44258;51.288;12.068;2022-10-26T04:04:21;11.52;;;3.67;;
58470;SDS011;44258;51.288;12.068;2022-10-26T04:06:47;9.18;;;4.13;;
58470;SDS011;44258;51.288;12.068;2022-10-26T04:09:14;9.30;;;3.95;;
58470;SDS011;44258;51.288;12.068;2022-10-26T04:11:42;12.57;;;4.13;;
58470;SDS011;44258;51.288;12.068;2022-10-26T04:14:09;8.65;;;3.88;;
58470;SDS011;44258;51.288;12.068;2022-10-26T04:16:36;10.70;;;4.13;;
58470;SDS011;44258;51.288;12.068;2022-10-26T04:19:02;11.07;;;4.25;;
58470;SDS011;44258;51.288;12.068;2022-10-26T04:21:29;13.18;;;4.78;;
58470;SDS011;44258;51.288;12.068;2022-10-26T04:23:57;8.80;;;4.00;;
58470;SDS011;44258;51.288;12.068;2022-10-26T04:26:24;9.43;;;4.07;;
58470;SDS011;44258;51.288;12.068;2022-10-26T04:28:52;8.88;;;4.03;;
58470;SDS011;44258;51.288;12.068;2022-10-26T04:31:19;10.75;;;4.00;;
58470;SDS011;44258;51.288;12.068;2022-10-26T04:33:46;11.23;;;4.32;;
58470;SDS011;44258;51.288;12.068;2022-10-26T04:36:12;11.35;;;4.90;;
58470;SDS011;44258;51.288;12.068;2022-10-26T04:38:39;10.55;;;4.15;;
58470;SDS011;44258;51.288;12.068;2022-10-26T04:41:05;9.32;;;4.15;;
58470;SDS011;44258;51.288;12.068;2022-10-26T04:43:32;10.32;;;4.30;;
58470;SDS011;44258;51.288;12.068;2022-10-26T04:46:00;8.60;;;4.07;;
58470;SDS011;44258;51.288;12.068;2022-10-26T04:48:27;13.35;;;4.18;;
58470;SDS011;44258;51.288;12.068;2022-10-26T04:50:57;9.93;;;3.97;;
58470;SDS011;44258;51.288;12.068;2022-10-26T04:53:23;10.02;;;4.30;;
58470;SDS011;44258;51.288;12.068;2022-10-26T04:55:54;10.25;;;4.25;;
58470;SDS011;44258;51.288;12.068;2022-10-26T04:58:22;14.20;;;4.43;;
58470;SDS011;44258;51.288;12.068;2022-10-26T05:00:49;10.60;;;4.57;;
58470;SDS011;44258;51.288;12.068;2022-10-26T05:03:17;11.60;;;5.05;;
58470;SDS011;44258;51.288;12.068;2022-10-26T05:05:44;10.15;;;4.97;;
58470;SDS011;44258;51.288;12.068;2022-10-26T05:08:11;13.10;;;5.10;;
58470;SDS011;44258;51.288;12.068;2022-10-26T05:10:39;11.73;;;5.13;;
58470;SDS011;44258;51.288;12.068;2022-10-26T05:13:06;14.95;;;5.65;;
58470;SDS011;44258;51.288;12.068;2022-10-26T05:15:34;13.30;;;5.30;;
58470;SDS011;44258;51.288;12.068;2022-10-26T05:18:01;11.30;;;5.07;;
58470;SDS011;44258;51.288;12.068;2022-10-26T05:20:32;12.70;;;5.65;;
58470;SDS011;44258;51.288;12.068;2022-10-26T05:23:03;14.95;;;5.70;;
58470;SDS011;44258;51.288;12.068;2022-10-26T05:25:31;13.00;;;5.45;;
58470;SDS011;44258;51.288;12.068;2022-10-26T05:28:01;14.68;;;5.65;;
58470;SDS011;44258;51.288;12.068;2022-10-26T05:30:29;13.18;;;5.25;;
58470;SDS011;44258;51.288;12.068;2022-10-26T05:32:57;12.98;;;5.57;;
58470;SDS011;44258;51.288;12.068;2022-10-26T05:35:25;10.68;;;5.00;;
58470;SDS011;44258;51.288;12.068;2022-10-26T05:37:53;12.32;;;5.63;;
58470;SDS011;44258;51.288;12.068;2022-10-26T05:40:20;15.32;;;7.47;;
58470;SDS011;44258;51.288;12.068;2022-10-26T05:42:47;12.75;;;6.40;;
58470;SDS011;44258;51.288;12.068;2022-10-26T05:45:14;13.73;;;5.90;;
58470;SDS011;44258;51.288;12.068;2022-10-26T05:47:42;12.82;;;5.93;;
58470;SDS011;44258;51.288;12.068;2022-10-26T05:50:11;13.35;;;5.90;;
58470;SDS011;44258;51.288;12.068;2022-10-26T05:52:38;12.30;;;5.28;;
58470;SDS011;44258;51.288;12.068;2022-10-26T05:55:08;12.90;;;6.20;;
58470;SDS011;44258;51.288;12.068;2022-10-26T05:57:37;11.05;;;5.50;;
58470;SDS011;44258;51.288;12.068;2022-10-26T06:00:06;13.25;;;6.18;;
58470;SDS011;44258;51.288;12.068;2022-10-26T06:02:35;12.65;;;6.03;;
58470;SDS011;44258;51.288;12.068;2022-10-26T06:05:14;14.65;;;6.57;;
58470;SDS011;44258;51.288;12.068;2022-10-26T06:07:46;12.38;;;6.03;;
58470;SDS011;44258;51.288;12.068;2022-10-26T06:10:15;16.00;;;5.88;;
58470;SDS011;44258;51.288;12.068;2022-10-26T06:12:43;16.42;;;6.78;;
58470;SDS011;44258;51.288;12.068;2022-10-26T06:15:12;17.45;;;6.60;;
58470;SDS011;44258;51.288;12.068;2022-10-26T06:17:44;15.13;;;6.03;;
58470;SDS011;44258;51.288;12.068;2022-10-26T06:20:23;13.50;;;5.78;;
58470;SDS011;44258;51.288;12.068;2022-10-26T06:23:00;18.55;;;7.72;;
58470;SDS011;44258;51.288;12.068;2022-10-26T06:25:48;15.68;;;6.72;;
58470;SDS011;44258;51.288;12.068;2022-10-26T06:28:29;19.75;;;9.48;;
58470;SDS011;44258;51.288;12.068;2022-10-26T06:31:04;15.73;;;5.72;;
58470;SDS011;44258;51.288;12.068;2022-10-26T06:33:32;22.52;;;9.02;;
58470;SDS011;44258;51.288;12.068;2022-10-26T06:36:02;17.88;;;8.60;;
58470;SDS011;44258;51.288;12.068;2022-10-26T06:38:38;17.23;;;7.78;;
58470;SDS011;44258;51.288;12.068;2022-10-26T06:41:09;14.70;;;6.55;;
58470;SDS011;44258;51.288;12.068;2022-10-26T06:43:39;12.93;;;6.25;;
58470;SDS011;44258;51.288;12.068;2022-10-26T06:46:09;14.00;;;6.38;;
58470;SDS011;44258;51.288;12.068;2022-10-26T06:48:44;14.80;;;6.40;;
58470;SDS011;44258;51.288;12.068;2022-10-26T06:51:15;13.73;;;6.40;;
58470;SDS011;44258;51.288;12.068;2022-10-26T06:53:45;18.70;;;7.88;;
58470;SDS011;44258;51.288;12.068;2022-10-26T06:56:21;14.23;;;6.90;;
58470;SDS011;44258;51.288;12.068;2022-10-26T06:58:49;17.98;;;6.85;;
58470;SDS011;44258;51.288;12.068;2022-10-26T07:01:18;12.63;;;6.45;;
58470;SDS011;44258;51.288;12.068;2022-10-26T07:03:45;14.52;;;7.15;;
58470;SDS011;44258;51.288;12.068;2022-10-26T07:06:11;17.55;;;6.75;;
58470;SDS011;44258;51.288;12.068;2022-10-26T07:08:39;13.63;;;6.57;;
58470;SDS011;44258;51.288;12.068;2022-10-26T07:11:05;13.57;;;6.20;;
58470;SDS011;44258;51.288;12.068;2022-10-26T07:13:34;13.85;;;5.78;;
58470;SDS011;44258;51.288;12.068;2022-10-26T07:16:01;16.02;;;6.10;;
58470;SDS011;44258;51.288;12.068;2022-10-26T07:18:28;15.68;;;5.82;;
58470;SDS011;44258;51.288;12.068;2022-10-26T07:20:55;10.07;;;4.63;;
58470;SDS011;44258;51.288;12.068;2022-10-26T07:23:23;12.40;;;5.53;;
58470;SDS011;44258;51.288;12.068;2022-10-26T07:25:50;13.68;;;5.68;;
58470;SDS011;44258;51.288;12.068;2022-10-26T07:28:17;12.40;;;5.32;;
58470;SDS011;44258;51.288;12.068;2022-10-26T07:30:45;12.15;;;5.40;;
58470;SDS011;44258;51.288;12.068;2022-10-26T07:33:12;13.15;;;5.28;;
58470;SDS011;44258;51.288;12.068;2022-10-26T07:35:39;12.18;;;5.35;;
58470;SDS011;44258;51.288;12.068;2022-10-26T07:38:07;13.60;;;5.78;;
58470;SDS011;44258;51.288;12.068;2022-10-26T07:40:34;13.60;;;5.13;;
58470;SDS011;44258;51.288;12.068;2022-10-26T07:43:02;13.55;;;5.60;;
58470;SDS011;44258;51.288;12.068;2022-10-26T07:45:29;12.98;;;5.32;;
58470;SDS011;44258;51.288;12.068;2022-10-26T07:47:57;11.20;;;5.28;;
58470;SDS011;44258;51.288;12.068;2022-10-26T07:50:24;11.65;;;4.93;;
58470;SDS011;44258;51.288;12.068;2022-10-26T07:52:51;12.95;;;4.88;;
58470;SDS011;44258;51.288;12.068;2022-10-26T07:55:18;12.27;;;5.03;;
58470;SDS011;44258;51.288;12.068;2022-10-26T07:57:45;12.05;;;4.90;;
58470;SDS011;44258;51.288;12.068;2022-10-26T08:00:12;11.45;;;4.45;;
58470;SDS011;44258;51.288;12.068;2022-10-26T08:02:40;9.98;;;4.85;;
58470;SDS011;44258;51.288;12.068;2022-10-26T08:05:08;10.52;;;4.50;;
58470;SDS011;44258;51.288;12.068;2022-10-26T08:07:39;12.60;;;5.25;;
58470;SDS011;44258;51.288;12.068;2022-10-26T08:10:07;14.38;;;5.13;;
58470;SDS011;44258;51.288;12.068;2022-10-26T08:12:34;13.15;;;5.15;;
58470;SDS011;44258;51.288;12.068;2022-10-26T08:15:02;19.88;;;8.63;;
58470;SDS011;44258;51.288;12.068;2022-10-26T08:17:29;16.98;;;8.80;;
58470;SDS011;44258;51.288;12.068;2022-10-26T08:19:56;16.27;;;6.50;;
58470;SDS011;44258;51.288;12.068;2022-10-26T08:22:24;14.00;;;6.10;;
58470;SDS011;44258;51.288;12.068;2022-10-26T08:24:51;14.55;;;5.75;;
58470;SDS011;44258;51.288;12.068;2022-10-26T08:27:17;12.82;;;5.97;;
58470;SDS011;44258;51.288;12.068;2022-10-26T08:29:44;11.43;;;6.05;;
58470;SDS011;44258;51.288;12.068;2022-10-26T08:32:11;10.68;;;5.07;;
58470;SDS011;44258;51.288;12.068;2022-10-26T08:34:38;11.30;;;4.00;;
58470;SDS011;44258;51.288;12.068;2022-10-26T08:37:05;13.13;;;4.85;;
58470;SDS011;44258;51.288;12.068;2022-10-26T08:39:35;11.50;;;6.13;;
58470;SDS011;44258;51.288;12.068;2022-10-26T08:42:03;11.70;;;4.50;;
58470;SDS011;44258;51.288;12.068;2022-10-26T08:44:35;11.50;;;3.90;;
58470;SDS011;44258;51.288;12.068;2022-10-26T08:47:05;10.55;;;4.45;;
58470;SDS011;44258;51.288;12.068;2022-10-26T08:49:40;9.93;;;3.92;;
58470;SDS011;44258;51.288;12.068;2022-10-26T08:52:13;10.38;;;4.85;;
58470;SDS011;44258;51.288;12.068;2022-10-26T08:54:45;9.85;;;3.58;;
58470;SDS011;44258;51.288;12.068;2022-10-26T08:57:18;9.43;;;3.97;;
58470;SDS011;44258;51.288;12.068;2022-10-26T08:59:51;11.07;;;3.55;;
58470;SDS011;44258;51.288;12.068;2022-10-26T09:02:23;8.32;;;3.65;;
58470;SDS011;44258;51.288;12.068;2022-10-26T09:04:50;9.18;;;3.45;;
58470;SDS011;44258;51.288;12.068;2022-10-26T09:10:14;8.65;;;3.60;;
58470;SDS011;44258;51.288;12.068;2022-10-26T09:12:52;11.48;;;3.50;;
58470;SDS011;44258;51.288;12.068;2022-10-26T09:15:25;8.32;;;3.05;;
58470;SDS011;44258;51.288;12.068;2022-10-26T09:17:57;12.07;;;4.00;;
58470;SDS011;44258;51.288;12.068;2022-10-26T09:23:32;9.52;;;3.80;;
58470;SDS011;44258;51.288;12.068;2022-10-26T09:26:10;9.07;;;3.38;;
58470;SDS011;44258;51.288;12.068;2022-10-26T09:28:39;9.18;;;3.63;;
58470;SDS011;44258;51.288;12.068;2022-10-26T09:31:12;8.82;;;3.10;;
58470;SDS011;44258;51.288;12.068;2022-10-26T09:33:40;8.88;;;3.45;;
58470;SDS011;44258;51.288;12.068;2022-10-26T09:36:07;6.78;;;3.05;;
58470;SDS011;44258;51.288;12.068;2022-10-26T09:38:38;8.65;;;3.60;;
58470;SDS011;44258;51.288;12.068;2022-10-26T09:41:12;7.60;;;3.30;;
58470;SDS011;44258;51.288;12.068;2022-10-26T09:43:46;12.70;;;4.00;;
58470;SDS011;44258;51.288;12.068;2022-10-26T09:46:17;9.30;;;3.65;;
58470;SDS011;44258;51.288;12.068;2022-10-26T09:48:48;10.80;;;4.20;;
58470;SDS011;44258;51.288;12.068;2022-10-26T09:51:19;8.68;;;3.70;;
58470;SDS011;44258;51.288;12.068;2022-10-26T09:53:47;8.45;;;3.75;;
58470;SDS011;44258;51.288;12.068;2022-10-26T09:56:17;8.70;;;3.92;;
58470;SDS011;44258;51.288;12.068;2022-10-26T09:58:45;8.13;;;3.80;;
58470;SDS011;44258;51.288;12.068;2022-10-26T10:01:19;9.95;;;3.50;;
58470;SDS011;44258;51.288;12.068;2022-10-26T10:03:47;9.55;;;3.58;;
58470;SDS011;44258;51.288;12.068;2022-10-26T10:06:35;9.98;;;4.00;;
58470;SDS011;44258;51.288;12.068;2022-10-26T10:09:05;14.05;;;3.85;;
58470;SDS011;44258;51.288;12.068;2022-10-26T10:11:38;10.07;;;3.47;;
58470;SDS011;44258;51.288;12.068;2022-10-26T10:14:06;11.70;;;3.42;;
58470;SDS011;44258;51.288;12.068;2022-10-26T10:16:33;10.07;;;3.90;;
58470;SDS011;44258;51.288;12.068;2022-10-26T10:19:01;12.57;;;3.47;;
58470;SDS011;44258;51.288;12.068;2022-10-26T10:21:32;9.48;;;3.67;;
58470;SDS011;44258;51.288;12.068;2022-10-26T10:24:00;8.73;;;3.35;;
58470;SDS011;44258;51.288;12.068;2022-10-26T10:26:27;10.50;;;3.63;;
58470;SDS011;44258;51.288;12.068;2022-10-26T10:28:59;10.10;;;3.88;;
58470;SDS011;44258;51.288;12.068;2022-10-26T10:31:28;10.70;;;3.55;;
58470;SDS011;44258;51.288;12.068;2022-10-26T10:33:56;7.80;;;3.60;;
58470;SDS011;44258;51.288;12.068;2022-10-26T10:36:24;7.75;;;3.03;;
58470;SDS011;44258;51.288;12.068;2022-10-26T10:38:53;11.13;;;3.33;;
58470;SDS011;44258;51.288;12.068;2022-10-26T10:41:24;8.20;;;3.15;;
58470;SDS011;44258;51.288;12.068;2022-10-26T10:43:54;8.68;;;3.53;;
58470;SDS011;44258;51.288;12.068;2022-10-26T10:46:32;10.25;;;3.13;;
58470;SDS011;44258;51.288;12.068;2022-10-26T10:49:03;8.00;;;3.08;;
58470;SDS011;44258;51.288;12.068;2022-10-26T10:51:34;7.35;;;3.15;;
58470;SDS011;44258;51.288;12.068;2022-10-26T10:54:04;8.20;;;3.33;;
58470;SDS011;44258;51.288;12.068;2022-10-26T10:56:33;7.47;;;3.35;;
58470;SDS011;44258;51.288;12.068;2022-10-26T10:59:18;7.72;;;3.72;;
58470;SDS011;44258;51.288;12.068;2022-10-26T11:02:12;9.73;;;3.60;;
58470;SDS011;44258;51.288;12.068;2022-10-26T11:04:58;12.27;;;4.07;;
58470;SDS011;44258;51.288;12.068;2022-10-26T11:07:41;12.63;;;3.78;;
58470;SDS011;44258;51.288;12.068;2022-10-26T11:10:13;10.00;;;3.72;;
58470;SDS011;44258;51.288;12.068;2022-10-26T11:12:45;8.95;;;3.35;;
58470;SDS011;44258;51.288;12.068;2022-10-26T11:15:17;9.38;;;3.53;;
58470;SDS011;44258;51.288;12.068;2022-10-26T11:17:51;8.48;;;3.90;;
58470;SDS011;44258;51.288;12.068;2022-10-26T11:20:23;17.80;;;6.00;;
58470;SDS011;44258;51.288;12.068;2022-10-26T11:22:59;21.02;;;6.53;;
58470;SDS011;44258;51.288;12.068;2022-10-26T11:25:32;18.15;;;4.80;;
58470;SDS011;44258;51.288;12.068;2022-10-26T11:28:03;13.82;;;4.72;;
58470;SDS011;44258;51.288;12.068;2022-10-26T11:30:36;19.67;;;5.97;;
58470;SDS011;44258;51.288;12.068;2022-10-26T11:33:10;15.18;;;5.28;;
58470;SDS011;44258;51.288;12.068;2022-10-26T11:35:42;11.45;;;4.32;;
58470;SDS011;44258;51.288;12.068;2022-10-26T11:38:13;9.98;;;3.55;;
58470;SDS011;44258;51.288;12.068;2022-10-26T11:40:47;6.95;;;2.75;;
58470;SDS011;44258;51.288;12.068;2022-10-26T11:43:23;6.65;;;2.05;;
58470;SDS011;44258;51.288;12.068;2022-10-26T11:45:57;5.18;;;1.80;;
58470;SDS011;44258;51.288;12.068;2022-10-26T11:48:32;4.88;;;1.88;;
58470;SDS011;44258;51.288;12.068;2022-10-26T11:51:03;5.18;;;1.90;;
58470;SDS011;44258;51.288;12.068;2022-10-26T11:53:39;2.10;;;1.13;;
58470;SDS011;44258;51.288;12.068;2022-10-26T11:56:11;5.50;;;1.50;;
58470;SDS011;44258;51.288;12.068;2022-10-26T11:58:40;3.33;;;1.30;;
58470;SDS011;44258;51.288;12.068;2022-10-26T12:01:09;2.50;;;1.50;;
58470;SDS011;44258;51.288;12.068;2022-10-26T12:03:42;3.75;;;1.50;;
58470;SDS011;44258;51.288;12.068;2022-10-26T12:06:12;3.00;;;1.45;;
58470;SDS011;44258;51.288;12.068;2022-10-26T12:08:45;3.80;;;1.55;;
58470;SDS011;44258;51.288;12.068;2022-10-26T12:11:18;3.97;;;1.70;;
58470;SDS011;44258;51.288;12.068;2022-10-26T12:13:57;5.45;;;1.65;;
58470;SDS011;44258;51.288;12.068;2022-10-26T12:16:34;5.35;;;1.70;;
58470;SDS011;44258;51.288;12.068;2022-10-26T12:19:13;4.32;;;1.63;;
58470;SDS011;44258;51.288;12.068;2022-10-26T12:21:45;5.05;;;1.90;;
58470;SDS011;44258;51.288;12.068;2022-10-26T12:24:24;3.80;;;1.60;;
58470;SDS011;44258;51.288;12.068;2022-10-26T12:26:58;4.50;;;1.55;;
58470;SDS011;44258;51.288;12.068;2022-10-26T12:41:22;3.63;;;1.40;;
58470;SDS011;44258;51.288;12.068;2022-10-26T12:43:56;3.10;;;1.25;;
58470;SDS011;44258;51.288;12.068;2022-10-26T12:52:28;4.45;;;1.73;;
58470;SDS011;44258;51.288;12.068;2022-10-26T12:58:12;3.85;;;1.60;;
58470;SDS011;44258;51.288;12.068;2022-10-26T13:01:06;2.85;;;1.38;;
58470;SDS011;44258;51.288;12.068;2022-10-26T13:03:57;4.05;;;1.83;;
58470;SDS011;44258;51.288;12.068;2022-10-26T13:06:44;4.13;;;1.60;;
58470;SDS011;44258;51.288;12.068;2022-10-26T13:09:26;4.28;;;1.65;;
58470;SDS011;44258;51.288;12.068;2022-10-26T13:11:57;3.60;;;1.63;;
58470;SDS011;44258;51.288;12.068;2022-10-26T13:14:27;4.32;;;1.88;;
58470;SDS011;44258;51.288;12.068;2022-10-26T13:16:57;5.40;;;1.80;;
58470;SDS011;44258;51.288;12.068;2022-10-26T13:19:26;3.08;;;1.40;;
58470;SDS011;44258;51.288;12.068;2022-10-26T13:21:58;5.15;;;1.80;;
58470;SDS011;44258;51.288;12.068;2022-10-26T13:24:27;3.00;;;1.55;;
58470;SDS011;44258;51.288;12.068;2022-10-26T13:33:13;4.40;;;2.00;;
58470;SDS011;44258;51.288;12.068;2022-10-26T13:35:44;5.43;;;2.17;;
58470;SDS011;44258;51.288;12.068;2022-10-26T13:38:12;8.90;;;2.80;;
58470;SDS011;44258;51.288;12.068;2022-10-26T13:40:46;10.98;;;3.50;;
58470;SDS011;44258;51.288;12.068;2022-10-26T13:43:15;9.27;;;3.42;;
58470;SDS011;44258;51.288;12.068;2022-10-26T13:45:48;17.55;;;6.85;;
58470;SDS011;44258;51.288;12.068;2022-10-26T13:48:21;16.63;;;7.20;;
58470;SDS011;44258;51.288;12.068;2022-10-26T13:50:57;12.65;;;4.60;;
58470;SDS011;44258;51.288;12.068;2022-10-26T13:53:28;11.30;;;3.70;;
58470;SDS011;44258;51.288;12.068;2022-10-26T13:56:04;8.43;;;3.43;;
58470;SDS011;44258;51.288;12.068;2022-10-26T13:58:38;10.45;;;3.30;;
58470;SDS011;44258;51.288;12.068;2022-10-26T14:01:12;10.55;;;3.47;;
58470;SDS011;44258;51.288;12.068;2022-10-26T14:03:42;9.15;;;3.90;;
58470;SDS011;44258;51.288;12.068;2022-10-26T14:06:12;9.13;;;3.42;;
58470;SDS011;44258;51.288;12.068;2022-10-26T14:08:43;10.07;;;3.58;;
58470;SDS011;44258;51.288;12.068;2022-10-26T14:11:16;8.13;;;3.08;;
58470;SDS011;44258;51.288;12.068;2022-10-26T14:13:45;8.60;;;3.28;;
58470;SDS011;44258;51.288;12.068;2022-10-26T14:16:14;9.52;;;2.80;;
58470;SDS011;44258;51.288;12.068;2022-10-26T14:18:44;12.52;;;2.80;;
58470;SDS011;44258;51.288;12.068;2022-10-26T14:21:13;6.15;;;2.58;;
58470;SDS011;44258;51.288;12.068;2022-10-26T14:23:51;5.43;;;2.13;;
58470;SDS011;44258;51.288;12.068;2022-10-26T14:26:22;5.55;;;2.20;;
58470;SDS011;44258;51.288;12.068;2022-10-26T14:28:55;5.03;;;2.28;;
58470;SDS011;44258;51.288;12.068;2022-10-26T14:31:24;5.55;;;2.03;;
58470;SDS011;44258;51.288;12.068;2022-10-26T14:33:53;4.82;;;2.20;;
58470;SDS011;44258;51.288;12.068;2022-10-26T14:36:21;4.93;;;1.95;;
58470;SDS011;44258;51.288;12.068;2022-10-26T14:38:53;5.13;;;1.88;;
58470;SDS011;44258;51.288;12.068;2022-10-26T14:41:24;7.03;;;2.10;;
58470;SDS011;44258;51.288;12.068;2022-10-26T14:43:52;5.68;;;2.28;;
58470;SDS011;44258;51.288;12.068;2022-10-26T14:46:21;6.53;;;1.60;;
58470;SDS011;44258;51.288;12.068;2022-10-26T14:48:49;5.22;;;1.83;;
58470;SDS011;44258;51.288;12.068;2022-10-26T14:51:19;5.88;;;2.00;;
58470;SDS011;44258;51.288;12.068;2022-10-26T14:53:47;3.70;;;1.65;;
58470;SDS011;44258;51.288;12.068;2022-10-26T14:56:17;6.38;;;1.80;;
58470;SDS011;44258;51.288;12.068;2022-10-26T14:58:52;5.50;;;1.73;;
58470;SDS011;44258;51.288;12.068;2022-10-26T15:01:23;4.57;;;1.92;;
58470;SDS011;44258;51.288;12.068;2022-10-26T15:03:55;4.82;;;1.80;;
58470;SDS011;44258;51.288;12.068;2022-10-26T15:06:29;4.90;;;1.90;;
58470;SDS011;44258;51.288;12.068;2022-10-26T15:11:57;4.13;;;1.75;;
58470;SDS011;44258;51.288;12.068;2022-10-26T15:14:26;6.60;;;2.20;;
58470;SDS011;44258;51.288;12.068;2022-10-26T15:16:54;5.82;;;1.95;;
58470;SDS011;44258;51.288;12.068;2022-10-26T15:19:23;5.68;;;1.98;;
58470;SDS011;44258;51.288;12.068;2022-10-26T15:21:52;4.93;;;1.63;;
58470;SDS011;44258;51.288;12.068;2022-10-26T15:24:23;5.85;;;2.55;;
58470;SDS011;44258;51.288;12.068;2022-10-26T15:26:54;5.28;;;2.55;;